Time;durP1;ratioP1;P1;durP2;ratioP2;P2;SDS_P1;SDS_P2;PMS_P1;PMS_P2;Temp;Humidity;BMP_temperature;BMP_pressure;BME280_temperature;BME280_humidity;BME280_pressure;Samples;Min_cycle;Max_cycle;Signal;HPM_P1;HPM_P2
2022/07/11 08:11:41;;;;;;;2.70;2.60;;;;;;;29.20;73.23;153389.59;5108145;27;20554;-57
2022/07/11 08:14:08;;;;;;;3.13;2.92;;;;;;;29.78;71.95;153535.69;5109235;28;20194;-57
2022/07/11 08:16:36;;;;;;;2.95;2.85;;;;;;;29.73;72.24;153522.88;5106996;28;20199;-58
2022/07/11 08:19:04;;;;;;;3.30;3.10;;;;;;;29.17;78.06;153380.63;5103922;28;20604;-58
2022/07/11 08:21:32;;;;;;;4.30;3.60;;;;;;;29.21;79.96;153392.16;5104862;28;20203;-59
2022/07/11 08:23:59;;;;;;;3.92;3.78;;;;;;;29.32;78.47;153420.38;5098259;28;20303;-58
2022/07/11 08:26:26;;;;;;;3.38;3.17;;;;;;;28.92;77.44;153317.88;5108117;28;20199;-59
2022/07/11 08:28:55;;;;;;;3.35;3.25;;;;;;;29.00;77.75;153339.66;5105869;28;20704;-58
2022/07/11 08:31:22;;;;;;;3.53;3.42;;;;;;;29.07;77.77;153355.03;5109173;28;20297;-59
2022/07/11 08:33:49;;;;;;;3.30;3.20;;;;;;;29.11;77.58;153365.28;5109433;28;20195;-58
2022/07/11 08:36:17;;;;;;;3.03;2.92;;;;;;;29.06;77.88;153353.75;5109287;28;20194;-58
2022/07/11 08:38:46;;;;;;;3.60;3.50;;;;;;;29.23;77.69;153397.28;5109489;28;20179;-59
2022/07/11 08:41:14;;;;;;;3.70;2.90;;;;;;;29.46;71.85;153456.25;5109351;28;20218;-59
2022/07/11 08:43:43;;;;;;;2.92;2.83;;;;;;;29.59;70.89;153487.00;5109265;28;20702;-59
2022/07/11 08:46:12;;;;;;;3.20;3.10;;;;;;;29.84;68.96;153552.31;5108550;28;20188;-59
2022/07/11 08:48:40;;;;;;;2.85;2.75;;;;;;;29.89;63.27;153563.91;5108783;28;20268;-59
2022/07/11 08:51:08;;;;;;;3.38;2.95;;;;;;;29.97;65.28;153584.41;5108290;28;20210;-58
2022/07/11 08:53:41;;;;;;;3.00;2.90;;;;;;;29.69;70.20;153512.63;5108458;28;20279;-59
2022/07/11 08:56:17;;;;;;;3.03;2.92;;;;;;;30.13;68.48;153624.19;5108634;28;20634;-59
2022/07/11 08:58:48;;;;;;;3.05;2.95;;;;;;;30.52;62.34;153722.88;5107452;28;20217;-58
2022/07/11 09:01:19;;;;;;;2.63;2.53;;;;;;;30.64;57.84;153754.91;5108291;28;20206;-59
2022/07/11 09:03:46;;;;;;;4.07;2.80;;;;;;;30.31;60.38;153671.56;5108896;28;20562;-58
2022/07/11 09:06:16;;;;;;;3.63;3.30;;;;;;;30.38;61.35;153688.25;5109483;28;20184;-57
2022/07/11 09:08:43;;;;;;;3.20;3.10;;;;;;;30.52;63.75;153722.88;5109326;28;20688;-58
2022/07/11 09:11:11;;;;;;;4.45;3.47;;;;;;;30.13;62.67;153624.19;5107247;28;20231;-59
2022/07/11 09:13:38;;;;;;;3.22;3.03;;;;;;;29.89;62.88;153565.19;5108908;28;20622;-59
2022/07/11 09:16:06;;;;;;;2.67;2.58;;;;;;;30.00;65.40;153592.13;5108505;28;20215;-59
2022/07/11 09:18:37;;;;;;;3.60;3.40;;;;;;;29.71;65.38;153519.00;5109073;28;20531;-60
2022/07/11 09:26:37;;;;;;;2.28;2.28;;;;;;;30.07;62.27;153610.06;5094906;28;20181;-58
2022/07/11 09:29:07;;;;;;;3.45;3.25;;;;;;;29.75;64.19;153527.97;5094318;28;20184;-59
2022/07/11 09:31:34;;;;;;;2.88;2.78;;;;;;;29.63;64.37;153497.22;5094569;28;20214;-58
2022/07/11 09:34:08;;;;;;;3.45;3.25;;;;;;;29.59;66.52;153487.00;5095118;28;20192;-58
2022/07/11 09:36:41;;;;;;;3.28;3.17;;;;;;;29.75;65.85;153529.25;5096904;28;20225;-58
2022/07/11 09:39:09;;;;;;;3.13;2.92;;;;;;;29.78;62.97;153535.69;5098304;28;20219;-58
2022/07/11 09:41:37;;;;;;;5.40;2.70;;;;;;;29.83;61.14;153548.50;5094655;28;20263;-58
2022/07/11 09:44:09;;;;;;;2.40;2.30;;;;;;;30.38;57.91;153688.25;5094364;28;20192;-59
2022/07/11 09:46:37;;;;;;;2.50;2.40;;;;;;;31.10;55.41;153870.41;5095086;28;20710;-58
2022/07/11 09:49:07;;;;;;;2.85;2.75;;;;;;;31.27;52.82;153915.22;5092531;28;20203;-59
2022/07/11 09:51:38;;;;;;;2.88;2.78;;;;;;;31.38;53.19;153942.19;5094130;28;20690;-58
2022/07/11 09:54:07;;;;;;;2.78;2.50;;;;;;;30.63;53.99;153752.41;5094171;28;20275;-58
2022/07/11 09:56:40;;;;;;;2.78;2.58;;;;;;;31.00;52.49;153846.03;5094191;28;20612;-58
2022/07/11 09:59:09;;;;;;;3.30;3.10;;;;;;;31.31;52.77;153922.97;5094861;28;20189;-59
2022/07/11 10:01:51;;;;;;;2.47;2.38;;;;;;;31.42;53.67;153951.16;5095760;28;20644;-59
2022/07/11 10:04:20;;;;;;;3.80;3.13;;;;;;;31.38;54.08;153940.91;5095897;28;20228;-58
2022/07/11 10:06:47;;;;;;;3.40;3.30;;;;;;;31.46;52.74;153961.41;5096649;28;20633;-59
2022/07/11 10:09:17;;;;;;;2.70;2.50;;;;;;;31.19;52.82;153893.47;5096082;28;20267;-58
2022/07/11 10:11:49;;;;;;;2.30;2.20;;;;;;;31.23;53.24;153904.97;5096198;28;20210;-59
2022/07/11 10:14:16;;;;;;;2.28;2.17;;;;;;;31.33;52.70;153928.06;5096148;28;20241;-58
2022/07/11 10:16:54;;;;;;;2.53;2.30;;;;;;;31.71;50.78;154026.88;5095765;28;20196;-58
2022/07/11 10:19:38;;;;;;;2.38;2.28;;;;;;;31.89;51.14;154071.78;5094210;28;20276;-59
2022/07/11 10:22:17;;;;;;;2.10;2.03;;;;;;;31.48;49.68;153966.56;5092506;28;20186;-58
2022/07/11 10:24:54;;;;;;;2.40;2.30;;;;;;;31.21;50.87;153898.59;5075540;28;20294;-58
2022/07/11 10:27:36;;;;;;;2.50;2.40;;;;;;;31.33;50.63;153928.06;5076388;28;20196;-59
2022/07/11 10:30:04;;;;;;;2.47;2.33;;;;;;;31.47;48.89;153965.28;5083538;28;20669;-59
2022/07/11 10:32:31;;;;;;;2.80;2.60;;;;;;;31.16;50.61;153885.75;5072532;28;20660;-60
2022/07/11 10:35:23;;;;;;;2.30;2.20;;;;;;;30.87;50.95;153812.63;5078358;28;20298;-59
2022/07/11 10:37:54;;;;;;;2.60;2.40;;;;;;;30.34;50.98;153679.25;5093640;28;20203;-58
2022/07/11 10:40:42;;;;;;;2.72;2.60;;;;;;;29.92;52.46;153572.88;5084333;28;20287;-58
2022/07/11 10:43:10;;;;;;;2.53;2.40;;;;;;;29.58;57.34;153484.47;5072795;28;20199;-59
2022/07/11 10:45:51;;;;;;;3.15;2.95;;;;;;;29.54;56.84;153475.44;5072064;28;20208;-58
2022/07/11 10:48:18;;;;;;;3.75;2.30;;;;;;;29.78;55.00;153535.69;5072501;28;20274;-58
2022/07/11 10:50:48;;;;;;;3.15;2.38;;;;;;;29.73;53.92;153522.88;5071928;28;20288;-58
2022/07/11 10:53:23;;;;;;;2.40;2.30;;;;;;;29.80;54.66;153542.09;5071966;28;20631;-59
2022/07/11 10:56:04;;;;;;;3.20;2.38;;;;;;;29.71;53.96;153517.72;5071897;28;20621;-59
2022/07/11 10:58:31;;;;;;;3.35;2.17;;;;;;;29.79;53.71;153538.28;5072120;28;20623;-58
2022/07/11 11:01:13;;;;;;;2.38;2.22;;;;;;;29.84;53.45;153551.03;5070872;28;20587;-58
2022/07/11 11:03:40;;;;;;;2.15;2.05;;;;;;;29.87;52.99;153560.06;5079275;28;20276;-58
2022/07/11 11:06:10;;;;;;;2.08;1.98;;;;;;;29.98;53.80;153587.00;5076485;28;20307;-58
2022/07/11 11:08:47;;;;;;;1.90;1.80;;;;;;;29.59;54.25;153488.28;5075367;28;20201;-58
2022/07/11 11:11:38;;;;;;;2.25;2.15;;;;;;;29.67;53.80;153508.75;5072094;28;20674;-58
2022/07/11 11:14:21;;;;;;;2.13;2.03;;;;;;;29.90;54.82;153566.50;5072387;28;20224;-57
2022/07/11 11:16:49;;;;;;;2.15;2.05;;;;;;;30.03;51.24;153598.53;5070832;28;20220;-58
2022/07/11 11:19:49;;;;;;;1.80;1.70;;;;;;;30.00;50.31;153592.13;5072621;28;20181;-59
2022/07/11 11:22:19;;;;;;;5.03;2.10;;;;;;;30.10;53.61;153616.44;5066788;28;20197;-58
2022/07/11 11:24:47;;;;;;;2.10;2.00;;;;;;;30.07;51.05;153608.78;5071827;28;20595;-59
2022/07/11 11:27:19;;;;;;;2.60;1.83;;;;;;;29.99;52.11;153588.28;5074434;28;20227;-58
2022/07/11 11:29:46;;;;;;;4.20;2.25;;;;;;;29.73;52.15;153522.88;5076199;28;20196;-58
2022/07/11 11:32:13;;;;;;;2.30;2.20;;;;;;;29.55;49.83;153476.75;5071642;28;20243;-58
2022/07/11 11:34:41;;;;;;;1.83;1.75;;;;;;;29.57;48.03;153483.19;5071688;28;20228;-58
2022/07/11 11:37:09;;;;;;;2.28;2.08;;;;;;;29.64;49.26;153501.09;5071602;28;20257;-57
2022/07/11 11:39:39;;;;;;;4.82;1.58;;;;;;;29.64;49.84;153501.09;5071988;28;20239;-57
2022/07/11 11:42:17;;;;;;;2.20;2.10;;;;;;;29.62;51.19;153495.94;5091540;28;20185;-59
2022/07/11 11:44:53;;;;;;;2.38;2.20;;;;;;;29.68;51.87;153510.06;5091560;28;20216;-58
2022/07/11 11:47:21;;;;;;;2.67;2.47;;;;;;;29.68;53.44;153510.06;5092832;28;20557;-58
2022/07/11 11:49:50;;;;;;;3.05;2.40;;;;;;;29.31;54.22;153417.84;5092252;28;20265;-58
2022/07/11 11:52:18;;;;;;;2.30;2.20;;;;;;;29.60;52.44;153489.56;5091907;28;20204;-57
2022/07/11 11:54:51;;;;;;;2.05;2.00;;;;;;;29.75;51.13;153529.25;5090877;28;20227;-57
2022/07/11 11:57:22;;;;;;;2.30;2.03;;;;;;;29.59;52.51;153487.00;5091872;28;20204;-57
2022/07/11 11:59:50;;;;;;;2.60;2.47;;;;;;;29.37;52.38;153433.19;5092308;28;20188;-58
2022/07/11 12:02:23;;;;;;;2.28;2.17;;;;;;;29.57;53.19;153483.19;5091823;28;20188;-58
2022/07/11 12:04:50;;;;;;;2.10;2.10;;;;;;;29.48;50.91;153461.41;5091760;28;20188;-58
2022/07/11 12:07:24;;;;;;;2.20;2.10;;;;;;;29.30;51.35;153413.97;5091474;28;20267;-59
2022/07/11 12:09:56;;;;;;;3.00;2.05;;;;;;;29.05;49.80;153351.19;5091333;28;20245;-58
2022/07/11 12:15:27;;;;;;;3.10;2.60;;;;;;;28.88;54.36;153308.91;5091595;28;20280;-58
2022/07/11 12:17:59;;;;;;;2.50;2.40;;;;;;;28.94;53.59;153323.03;5091259;28;20230;-58
2022/07/11 12:20:45;;;;;;;2.60;2.40;;;;;;;29.31;54.31;153416.56;5073505;28;20732;-59
2022/07/11 12:23:16;;;;;;;3.42;2.60;;;;;;;29.48;55.83;153460.09;5071200;28;20658;-58
2022/07/11 12:25:46;;;;;;;2.60;2.50;;;;;;;29.56;54.38;153479.31;5089637;28;20203;-57
2022/07/11 12:28:13;;;;;;;2.47;2.38;;;;;;;29.54;52.82;153475.44;5091814;28;20646;-58
2022/07/11 12:30:40;;;;;;;2.50;2.40;;;;;;;29.62;53.23;153494.72;5082719;28;20291;-57
2022/07/11 12:33:09;;;;;;;2.53;2.42;;;;;;;29.75;54.61;153529.25;5091246;28;20198;-58
2022/07/11 12:35:36;;;;;;;5.15;2.38;;;;;;;29.83;55.72;153548.50;5081562;28;20600;-58
2022/07/11 12:38:03;;;;;;;4.03;2.70;;;;;;;29.50;54.39;153466.50;5076211;28;20742;-58
2022/07/11 12:40:31;;;;;;;2.47;2.30;;;;;;;29.58;53.63;153484.47;5086287;28;20210;-58
2022/07/11 12:42:59;;;;;;;2.58;2.47;;;;;;;29.63;51.67;153497.22;5091841;28;20271;-58
2022/07/11 12:45:25;;;;;;;2.72;2.50;;;;;;;29.54;53.08;153474.16;5083282;28;20200;-57
2022/07/11 12:47:57;;;;;;;2.40;2.38;;;;;;;29.59;52.42;153488.28;5080184;28;20196;-57
2022/07/11 12:50:26;;;;;;;2.40;2.30;;;;;;;29.67;50.77;153507.47;5083161;28;20706;-58
2022/07/11 12:52:55;;;;;;;2.60;2.50;;;;;;;29.70;49.77;153516.50;5085558;28;20223;-58
2022/07/11 12:55:24;;;;;;;2.53;2.42;;;;;;;29.64;53.70;153499.81;5091043;28;20674;-57
2022/07/11 12:58:13;;;;;;;2.65;2.50;;;;;;;29.74;51.40;153525.44;5093927;28;20591;-57
2022/07/11 13:00:56;;;;;;;2.63;2.22;;;;;;;29.93;48.49;153574.16;5094729;28;20652;-58
2022/07/11 13:03:29;;;;;;;3.33;3.22;;;;;;;29.97;49.02;153584.41;5094623;28;20257;-58
2022/07/11 13:05:57;;;;;;;3.20;2.45;;;;;;;29.90;50.34;153567.78;5094455;28;20247;-58
2022/07/11 13:11:12;;;;;;;2.53;2.42;;;;;;;29.92;47.79;153571.59;5094276;28;20225;-58
2022/07/11 13:13:41;;;;;;;2.35;2.25;;;;;;;29.78;47.31;153536.97;5094201;28;20278;-58
2022/07/11 13:16:08;;;;;;;3.05;2.10;;;;;;;29.68;46.48;153510.06;5094246;28;20188;-58
2022/07/11 13:18:35;;;;;;;2.72;1.92;;;;;;;29.39;47.54;153438.31;5094180;28;20569;-58
2022/07/11 13:21:03;;;;;;;2.50;2.40;;;;;;;29.46;49.48;153456.25;5094244;28;20184;-58
2022/07/11 13:23:30;;;;;;;3.45;2.50;;;;;;;29.41;48.05;153443.44;5094971;28;20497;-57
2022/07/11 13:25:57;;;;;;;5.88;2.28;;;;;;;29.48;48.45;153461.41;5093208;28;20241;-57
2022/07/11 13:28:24;;;;;;;2.28;2.17;;;;;;;29.62;49.38;153495.94;5094141;28;20267;-58
2022/07/11 13:30:53;;;;;;;2.25;2.15;;;;;;;29.54;47.52;153475.44;5093052;28;20527;-58
2022/07/11 13:33:21;;;;;;;1.73;1.73;;;;;;;29.38;47.12;153435.75;5093834;28;20195;-57
2022/07/11 13:35:49;;;;;;;1.90;1.80;;;;;;;29.21;47.39;153392.16;5076514;28;20253;-59
2022/07/11 13:38:16;;;;;;;1.90;1.80;;;;;;;29.18;47.26;153383.19;5073409;28;20268;-58
2022/07/11 13:40:44;;;;;;;2.25;1.60;;;;;;;29.20;47.90;153389.59;5074087;28;20188;-58
2022/07/11 13:43:11;;;;;;;2.22;2.13;;;;;;;29.05;48.38;153351.19;5073613;28;20215;-58
2022/07/11 13:45:39;;;;;;;2.53;1.90;;;;;;;29.08;48.74;153358.84;5073444;28;20554;-58
2022/07/11 13:48:08;;;;;;;1.88;1.77;;;;;;;29.11;48.74;153366.50;5073592;28;20203;-58
2022/07/11 13:50:35;;;;;;;2.28;2.17;;;;;;;29.12;48.80;153369.09;5087679;28;20196;-58
2022/07/11 13:53:02;;;;;;;2.08;1.98;;;;;;;29.13;49.84;153370.38;5073587;28;20295;-58
2022/07/11 13:55:30;;;;;;;5.25;2.10;;;;;;;29.32;49.85;153420.38;5074051;28;20254;-59
2022/07/11 13:57:58;;;;;;;3.42;1.73;;;;;;;29.44;48.97;153449.88;5073456;28;20283;-58
2022/07/11 14:00:25;;;;;;;2.75;1.55;;;;;;;29.27;47.10;153407.53;5073632;28;20635;-57
2022/07/11 14:02:53;;;;;;;3.17;1.38;;;;;;;29.41;45.66;153443.44;5088276;28;20202;-58
2022/07/11 14:05:21;;;;;;;2.00;1.48;;;;;;;29.33;45.52;153422.94;5079149;28;20242;-58
2022/07/11 14:07:49;;;;;;;2.13;1.88;;;;;;;29.30;45.97;153413.97;5091363;28;20283;-58
2022/07/11 14:10:16;;;;;;;2.35;1.63;;;;;;;29.31;46.93;153417.84;5093222;28;20234;-58
2022/07/11 14:12:43;;;;;;;1.20;1.20;;;;;;;29.22;47.35;153394.72;5093345;28;20298;-58
2022/07/11 14:15:11;;;;;;;1.90;1.50;;;;;;;29.06;47.75;153353.75;5094368;28;20188;-57
2022/07/11 14:17:39;;;;;;;1.60;1.50;;;;;;;29.13;49.11;153370.38;5093383;28;20219;-57
2022/07/11 14:20:07;;;;;;;1.50;1.50;;;;;;;29.03;48.82;153346.03;5094207;28;20577;-58
2022/07/11 14:22:35;;;;;;;1.30;1.30;;;;;;;29.22;47.86;153394.72;5093221;28;20206;-58
2022/07/11 14:25:03;;;;;;;1.80;1.27;;;;;;;29.18;46.91;153384.47;5093142;28;20184;-58
2022/07/11 14:27:30;;;;;;;1.52;1.52;;;;;;;29.12;46.84;153367.81;5093098;28;20196;-57
2022/07/11 14:29:57;;;;;;;2.67;1.27;;;;;;;29.13;47.37;153371.66;5092902;28;20640;-58
2022/07/11 14:32:24;;;;;;;1.40;1.40;;;;;;;29.12;47.85;153367.81;5092668;28;20255;-59
2022/07/11 14:34:51;;;;;;;2.75;1.40;;;;;;;29.15;47.87;153375.53;5092747;28;20203;-59
2022/07/11 14:37:18;;;;;;;1.77;1.67;;;;;;;29.21;47.33;153392.16;5092684;28;20196;-59
2022/07/11 14:39:47;;;;;;;1.52;1.42;;;;;;;29.27;46.83;153406.25;5093829;28;20598;-57
2022/07/11 14:42:14;;;;;;;1.25;1.25;;;;;;;29.26;46.31;153404.97;5091552;28;20233;-58
2022/07/11 14:44:41;;;;;;;2.90;1.48;;;;;;;29.28;46.05;153408.81;5093118;28;20550;-58
2022/07/11 14:47:08;;;;;;;1.02;1.02;;;;;;;29.23;44.19;153397.28;5092900;28;20200;-58
2022/07/11 14:49:35;;;;;;;2.70;1.08;;;;;;;29.10;43.72;153364.00;5092708;28;20184;-59
2022/07/11 14:52:05;;;;;;;1.38;1.27;;;;;;;29.16;44.66;153378.03;5092803;28;20565;-57
2022/07/11 14:54:32;;;;;;;1.33;1.23;;;;;;;29.10;43.82;153364.00;5092989;28;20669;-59
2022/07/11 14:57:01;;;;;;;4.43;1.30;;;;;;;29.05;44.12;153352.47;5092736;28;20271;-58
2022/07/11 14:59:27;;;;;;;2.10;1.40;;;;;;;28.99;45.23;153335.78;5092601;28;20195;-58
2022/07/11 15:01:54;;;;;;;2.50;1.58;;;;;;;28.89;45.32;153310.22;5092430;28;20631;-56
2022/07/11 15:04:21;;;;;;;1.85;1.75;;;;;;;28.88;45.12;153308.91;5092552;28;20276;-58
2022/07/11 15:12:23;;;;;;;2.67;1.20;;;;;;;28.99;45.33;153335.78;5092703;28;20215;-58
2022/07/11 15:14:51;;;;;;;1.13;1.13;;;;;;;29.01;45.57;153340.94;5092243;28;20180;-58
2022/07/11 15:17:19;;;;;;;1.48;1.40;;;;;;;29.05;44.92;153351.19;5092141;28;20180;-58
2022/07/11 15:19:46;;;;;;;2.15;1.40;;;;;;;29.00;44.69;153338.38;5092005;28;20184;-58
2022/07/11 15:22:14;;;;;;;1.40;1.30;;;;;;;29.11;44.68;153365.28;5092433;28;20601;-58
2022/07/11 15:24:41;;;;;;;1.88;1.77;;;;;;;28.92;45.04;153317.88;5091978;28;20188;-56
2022/07/11 15:27:08;;;;;;;1.23;1.00;;;;;;;28.80;44.64;153287.16;5092287;28;20181;-57
2022/07/11 15:29:38;;;;;;;2.10;1.20;;;;;;;28.80;44.24;153287.16;5092193;28;20536;-58
2022/07/11 15:32:06;;;;;;;3.78;1.00;;;;;;;28.74;43.82;153271.75;5092219;28;20298;-58
2022/07/11 15:34:33;;;;;;;1.13;0.93;;;;;;;28.67;43.73;153253.81;5092001;28;20213;-58
2022/07/11 15:37:00;;;;;;;1.13;1.13;;;;;;;28.65;43.30;153248.66;5090938;28;20592;-57
2022/07/11 15:39:27;;;;;;;1.83;1.00;;;;;;;28.65;43.59;153249.94;5091744;28;20227;-58
2022/07/11 15:41:54;;;;;;;1.23;0.95;;;;;;;28.66;43.88;153251.22;5092133;28;20229;-58
2022/07/11 15:44:21;;;;;;;2.30;1.20;;;;;;;28.69;43.58;153258.91;5092099;28;20214;-57
2022/07/11 15:46:54;;;;;;;1.83;1.00;;;;;;;28.68;43.96;153256.38;5091723;28;20206;-57
2022/07/11 15:49:21;;;;;;;2.33;1.00;;;;;;;28.63;43.11;153244.84;5091682;28;20206;-58
2022/07/11 15:51:48;;;;;;;0.98;0.98;;;;;;;28.63;42.07;153243.56;5091579;28;20189;-57
2022/07/11 15:54:15;;;;;;;3.85;1.00;;;;;;;28.64;42.19;153246.13;5091601;28;20224;-58
2022/07/11 15:56:42;;;;;;;1.27;1.05;;;;;;;28.60;41.65;153237.19;5091637;28;20237;-58
2022/07/11 15:59:09;;;;;;;5.15;1.50;;;;;;;28.54;41.49;153221.78;5091424;28;20215;-58
2022/07/11 16:01:37;;;;;;;1.98;0.98;;;;;;;28.54;41.48;153223.09;5091834;28;20180;-57
2022/07/11 16:04:05;;;;;;;1.00;1.00;;;;;;;28.45;41.65;153200.03;5091204;28;20253;-58
2022/07/11 16:06:34;;;;;;;1.00;0.90;;;;;;;28.43;41.21;153194.88;5091424;28;20190;-57
2022/07/11 16:09:02;;;;;;;1.00;0.98;;;;;;;28.47;41.47;153203.88;5091610;28;20206;-58
2022/07/11 16:11:29;;;;;;;1.40;1.13;;;;;;;28.35;40.85;153174.41;5091321;28;20318;-58
2022/07/11 16:13:55;;;;;;;1.70;0.90;;;;;;;28.30;40.54;153160.34;5091599;28;20298;-58
2022/07/11 16:16:24;;;;;;;0.93;0.93;;;;;;;28.38;40.87;153182.13;5091752;28;20599;-58
2022/07/11 16:18:53;;;;;;;2.17;0.98;;;;;;;28.34;40.63;153171.88;5091528;28;20690;-58
2022/07/11 16:21:21;;;;;;;0.95;0.80;;;;;;;28.28;40.67;153155.22;5091439;28;20180;-58
2022/07/11 16:23:48;;;;;;;0.90;0.90;;;;;;;28.27;40.39;153153.94;5092138;28;20218;-58
2022/07/11 16:26:16;;;;;;;0.80;0.80;;;;;;;28.26;39.90;153151.41;5091493;28;20199;-57
2022/07/11 16:28:44;;;;;;;1.45;0.70;;;;;;;28.25;40.08;153147.53;5091751;28;20706;-58
2022/07/11 16:31:11;;;;;;;0.60;0.60;;;;;;;27.91;39.55;153063.03;5091605;28;20244;-58
2022/07/11 16:33:38;;;;;;;1.95;0.70;;;;;;;28.00;39.94;153084.78;5095450;28;20214;-58
2022/07/11 16:36:05;;;;;;;4.38;0.90;;;;;;;28.01;39.54;153088.59;5095846;28;20263;-58
2022/07/11 16:38:33;;;;;;;0.73;0.70;;;;;;;27.98;39.83;153080.94;5095832;28;20535;-61
2022/07/11 16:43:44;;;;;;;0.70;0.70;;;;;;;27.86;39.38;153048.94;5095463;28;20696;-58
2022/07/11 16:46:11;;;;;;;1.33;0.70;;;;;;;27.84;39.58;153043.84;5095714;28;20241;-58
2022/07/11 16:48:40;;;;;;;0.90;0.77;;;;;;;27.78;39.79;153029.75;5095129;28;20206;-58
2022/07/11 16:51:11;;;;;;;0.60;0.60;;;;;;;27.80;39.85;153034.84;5095460;28;20216;-58
2022/07/11 16:53:39;;;;;;;6.03;0.77;;;;;;;27.54;40.06;152968.34;5095060;28;20200;-57
2022/07/11 16:56:08;;;;;;;2.53;0.80;;;;;;;27.56;39.85;152974.72;5095389;28;20568;-58
2022/07/11 16:58:34;;;;;;;1.85;0.80;;;;;;;27.43;39.48;152941.41;5095468;28;20658;-57
2022/07/11 17:01:01;;;;;;;1.02;0.70;;;;;;;27.40;39.34;152932.47;5095294;28;20588;-58
2022/07/11 17:03:28;;;;;;;2.05;0.70;;;;;;;27.38;39.88;152927.31;5095667;28;20188;-58
2022/07/11 17:05:55;;;;;;;1.13;1.00;;;;;;;27.35;39.88;152920.94;5095216;28;20629;-58
2022/07/11 17:11:09;;;;;;;2.55;0.70;;;;;;;27.25;40.59;152896.63;5094704;28;20257;-57
2022/07/11 17:13:36;;;;;;;0.60;0.60;;;;;;;27.05;41.15;152844.19;5094754;28;20243;-57
2022/07/11 17:16:07;;;;;;;1.05;0.50;;;;;;;27.01;41.27;152833.94;5095434;28;20271;-57
2022/07/11 17:18:34;;;;;;;0.70;0.70;;;;;;;26.96;41.25;152821.16;5094712;28;20223;-58
2022/07/11 17:21:01;;;;;;;1.45;0.80;;;;;;;26.77;41.21;152775.09;5094648;28;20199;-58
2022/07/11 17:23:29;;;;;;;1.00;0.77;;;;;;;26.70;41.09;152757.16;5094811;28;20574;-57
2022/07/11 17:25:56;;;;;;;0.73;0.73;;;;;;;26.62;41.48;152736.69;5094920;28;20685;-57
2022/07/11 17:28:24;;;;;;;1.48;1.00;;;;;;;26.61;41.41;152734.13;5094538;28;20190;-57
2022/07/11 17:30:53;;;;;;;1.88;0.90;;;;;;;26.58;42.43;152726.47;5095207;28;20188;-58
2022/07/11 17:33:20;;;;;;;0.80;0.80;;;;;;;26.51;42.33;152708.59;5094378;28;20247;-56
2022/07/11 17:35:48;;;;;;;2.70;0.85;;;;;;;26.37;42.09;152672.75;5094216;28;20188;-57
2022/07/11 17:38:18;;;;;;;1.52;0.68;;;;;;;26.24;43.34;152639.50;5094659;28;20263;-57
2022/07/11 17:40:46;;;;;;;2.35;0.77;;;;;;;26.20;43.06;152629.28;5094231;28;20188;-57
2022/07/11 17:43:13;;;;;;;0.98;0.77;;;;;;;26.06;44.01;152593.44;5093816;28;20183;-56
2022/07/11 17:45:42;;;;;;;3.00;0.70;;;;;;;25.99;43.99;152575.56;5094211;28;20589;-56
2022/07/11 17:48:11;;;;;;;2.70;0.70;;;;;;;25.90;44.53;152553.81;5094363;28;20185;-57
2022/07/11 17:50:39;;;;;;;1.95;0.63;;;;;;;25.80;45.21;152528.28;5094317;28;20245;-57
2022/07/11 17:53:06;;;;;;;3.45;0.70;;;;;;;25.73;44.99;152510.38;5093953;28;20204;-57
2022/07/11 17:55:34;;;;;;;1.63;0.70;;;;;;;25.66;44.97;152492.50;5094104;28;20219;-58
2022/07/11 17:58:01;;;;;;;2.25;0.70;;;;;;;25.53;45.13;152460.53;5092671;28;20184;-57
2022/07/11 18:00:28;;;;;;;1.85;0.70;;;;;;;25.53;45.86;152460.53;5093843;28;20195;-57
2022/07/11 18:02:56;;;;;;;0.70;0.70;;;;;;;25.48;46.10;152449.00;5093941;28;20181;-57
2022/07/11 18:05:25;;;;;;;0.70;0.70;;;;;;;25.27;46.17;152394.03;5093695;28;20196;-61
2022/07/11 18:07:52;;;;;;;0.90;0.90;;;;;;;25.23;46.78;152383.81;5093936;28;20638;-57
2022/07/11 18:10:19;;;;;;;0.80;0.80;;;;;;;25.10;47.67;152350.59;5093885;28;20235;-58
2022/07/11 18:12:47;;;;;;;0.70;0.70;;;;;;;24.94;48.40;152312.28;5093899;28;20218;-57
2022/07/11 18:15:15;;;;;;;0.70;0.70;;;;;;;24.91;48.09;152304.59;5094225;28;20187;-57
2022/07/11 18:17:42;;;;;;;2.00;0.95;;;;;;;24.64;49.07;152235.59;5093994;28;20180;-57
2022/07/11 18:20:14;;;;;;;2.63;0.88;;;;;;;24.69;50.53;152247.09;5093401;28;20180;-56
2022/07/11 18:22:42;;;;;;;1.60;0.80;;;;;;;24.68;51.68;152245.81;5093380;28;20180;-58
2022/07/11 18:25:10;;;;;;;0.88;0.88;;;;;;;24.64;50.79;152235.59;5093498;28;20195;-57
2022/07/11 18:27:38;;;;;;;1.15;1.15;;;;;;;24.61;49.81;152227.97;5093419;28;20226;-56
2022/07/11 18:30:07;;;;;;;1.30;0.75;;;;;;;24.52;50.78;152204.97;5093058;28;20231;-57
2022/07/11 18:32:34;;;;;;;1.10;1.02;;;;;;;24.38;50.09;152170.47;5093049;28;20185;-58
2022/07/11 18:35:01;;;;;;;1.13;0.98;;;;;;;24.43;50.69;152183.25;5093302;28;20235;-57
2022/07/11 18:37:29;;;;;;;1.50;1.10;;;;;;;24.40;50.97;152174.31;5093246;28;20620;-57
2022/07/11 18:42:41;;;;;;;2.33;2.22;;;;;;;24.14;54.20;152110.38;5093632;28;20179;-57
2022/07/11 18:45:09;;;;;;;12.95;5.65;;;;;;;24.09;53.72;152096.38;5092980;28;20197;-57
2022/07/11 18:47:36;;;;;;;6.40;5.70;;;;;;;23.99;54.99;152070.81;5092970;28;20282;-57
2022/07/11 18:50:03;;;;;;;9.80;7.30;;;;;;;23.94;54.58;152059.34;5092812;28;20180;-58
2022/07/11 18:52:33;;;;;;;8.02;7.10;;;;;;;23.88;56.73;152042.75;5092980;28;20265;-57
2022/07/11 18:55:01;;;;;;;24.33;16.73;;;;;;;23.72;55.07;152001.94;5092305;28;20275;-56
2022/07/11 18:57:28;;;;;;;20.92;15.85;;;;;;;23.77;55.19;152014.66;5093043;28;20646;-58
2022/07/11 18:59:55;;;;;;;10.95;9.63;;;;;;;23.72;54.64;152001.94;5092707;28;20188;-57
2022/07/11 19:02:22;;;;;;;14.63;7.10;;;;;;;23.58;54.52;151967.47;5093013;28;20614;-57
2022/07/11 19:04:49;;;;;;;3.38;3.15;;;;;;;23.67;53.44;151990.44;5093452;28;20220;-57
2022/07/11 19:07:16;;;;;;;4.30;2.92;;;;;;;23.64;53.69;151984.03;5092630;28;20188;-57
2022/07/11 19:09:44;;;;;;;6.18;2.85;;;;;;;23.66;53.74;151987.88;5092451;28;20319;-57
2022/07/11 19:12:11;;;;;;;4.03;3.72;;;;;;;23.71;55.00;152000.66;5092590;28;20199;-57
2022/07/11 19:14:38;;;;;;;5.28;4.75;;;;;;;23.67;54.47;151990.44;5092711;28;20219;-57
2022/07/11 19:17:05;;;;;;;4.93;4.60;;;;;;;23.68;54.23;151994.22;5092770;28;20188;-56
2022/07/11 19:19:32;;;;;;;5.07;3.78;;;;;;;23.62;55.57;151977.66;5092359;28;20184;-58
2022/07/11 19:22:01;;;;;;;3.00;2.75;;;;;;;23.54;56.08;151957.25;5092652;28;20184;-58
2022/07/11 19:24:28;;;;;;;4.13;2.45;;;;;;;23.40;58.04;151921.44;5092363;28;20567;-57
2022/07/11 19:26:56;;;;;;;2.10;1.95;;;;;;;23.26;60.54;151887.00;5092419;28;20180;-57
2022/07/11 19:29:23;;;;;;;3.83;2.28;;;;;;;23.23;60.63;151880.63;5092198;28;20188;-57
2022/07/11 19:31:51;;;;;;;3.30;1.88;;;;;;;23.26;60.50;151885.72;5092499;28;20276;-59
2022/07/11 19:34:18;;;;;;;2.33;1.92;;;;;;;23.14;60.98;151857.66;5092368;28;20717;-57
2022/07/11 19:36:45;;;;;;;2.08;1.92;;;;;;;23.02;61.72;151825.75;5092073;28;20275;-58
2022/07/11 19:39:14;;;;;;;2.22;2.03;;;;;;;22.89;61.74;151793.88;5092298;28;20184;-58
2022/07/11 19:41:42;;;;;;;2.30;2.20;;;;;;;22.81;61.36;151773.47;5092032;28;20213;-58
2022/07/11 19:44:10;;;;;;;2.50;2.30;;;;;;;22.70;63.13;151746.66;5092129;28;20249;-57
2022/07/11 19:46:37;;;;;;;2.67;1.85;;;;;;;22.51;64.32;151696.88;5092283;28;20662;-58
2022/07/11 19:49:04;;;;;;;5.13;3.05;;;;;;;22.71;64.24;151747.94;5092186;28;20565;-57
2022/07/11 19:51:32;;;;;;;8.50;7.70;;;;;;;22.66;65.47;151735.16;5091870;28;20219;-57
2022/07/11 19:53:59;;;;;;;8.07;4.93;;;;;;;22.65;66.46;151732.59;5091831;28;20200;-56
2022/07/11 19:59:11;;;;;;;7.35;6.95;;;;;;;22.45;68.77;151681.59;5091268;28;20250;-57
2022/07/11 20:01:38;;;;;;;3.45;2.65;;;;;;;22.46;68.99;151685.41;5091743;28;20195;-58
2022/07/11 20:04:05;;;;;;;5.35;4.95;;;;;;;21.93;78.12;151550.28;5092047;28;20680;-58
2022/07/11 20:06:32;;;;;;;6.70;6.20;;;;;;;22.10;77.31;151594.91;5092335;28;20173;-57
2022/07/11 20:08:59;;;;;;;4.93;4.53;;;;;;;22.05;77.98;151582.13;5091619;28;20188;-56
2022/07/11 20:11:26;;;;;;;3.28;3.05;;;;;;;21.88;76.57;151538.75;5091449;28;20706;-55